Aviation Digital Data Service (ADDS)

Output produced by METARs form (0426 UTC 26 June 2016)
found at http://www.aviationweather.gov/adds/metars/
 
KMIV 260354Z AUTO 00000KT 10SM CLR 16/14 A3021 RMK AO2 SLP230 T01560139
KMIV 252329Z 2600/2624 10006KT P6SM FEW050 
     FM260200 00000KT P6SM SKC 
     TEMPO 2606/2610 4SM BR 
     FM261800 15005KT P6SM FEW050